createdAt,value
2023-04-23T00:00:03.440Z,1016.71
2023-04-23T00:05:03.097Z,1016.74
2023-04-23T00:10:04.044Z,1016.77
2023-04-23T00:15:03.128Z,1016.77
2023-04-23T00:20:03.265Z,1016.84
2023-04-23T00:25:03.122Z,1016.87
2023-04-23T00:30:03.328Z,1016.98
2023-04-23T00:35:03.148Z,1017.05
2023-04-23T00:40:03.250Z,1017.05
2023-04-23T00:45:03.109Z,1017.03
2023-04-23T00:50:04.222Z,1017.05
2023-04-23T00:55:03.232Z,1017.03
2023-04-23T01:00:03.349Z,1017.08
2023-04-23T01:05:03.020Z,1017.1
2023-04-23T01:10:03.225Z,1017.08
2023-04-23T01:15:03.089Z,1017.08
2023-04-23T01:20:03.495Z,1017.02
2023-04-23T01:25:04.346Z,1016.97
2023-04-23T01:30:03.514Z,1016.95
2023-04-23T01:35:03.181Z,1016.96
2023-04-23T01:40:03.246Z,1016.95
2023-04-23T01:45:03.073Z,1016.89
2023-04-23T01:50:03.210Z,1016.83
2023-04-23T01:55:03.190Z,1016.81
2023-04-23T02:00:03.406Z,1016.81
2023-04-23T02:05:03.192Z,1016.82
2023-04-23T02:10:03.176Z,1016.86
2023-04-23T02:15:03.081Z,1016.86
2023-04-23T02:20:03.309Z,1016.83
2023-04-23T02:25:03.081Z,1016.82
2023-04-23T02:30:03.418Z,1016.71
2023-04-23T02:35:03.102Z,1016.76
2023-04-23T02:40:03.375Z,1016.74
2023-04-23T02:45:03.185Z,1016.76
2023-04-23T02:50:03.271Z,1016.84
2023-04-23T02:55:03.078Z,1016.82
2023-04-23T03:00:03.476Z,1016.8
2023-04-23T03:05:03.114Z,1016.78
2023-04-23T03:10:03.246Z,1016.85
2023-04-23T03:15:03.089Z,1016.86
2023-04-23T03:20:03.383Z,1016.78
2023-04-23T03:25:03.142Z,1016.76
2023-04-23T03:30:04.232Z,1016.69
2023-04-23T03:35:03.089Z,1016.56
2023-04-23T03:40:03.162Z,1016.55
2023-04-23T03:45:03.032Z,1016.61
2023-04-23T03:50:03.146Z,1016.58
2023-04-23T03:55:03.034Z,1016.56
2023-04-23T04:00:03.219Z,1016.52
2023-04-23T04:05:04.195Z,1016.48
2023-04-23T04:10:03.181Z,1016.45
2023-04-23T04:15:03.028Z,1016.45
2023-04-23T04:20:03.264Z,1016.42
2023-04-23T04:25:03.065Z,1016.33
2023-04-23T04:30:03.277Z,1016.3
2023-04-23T04:35:02.982Z,1016.28
2023-04-23T04:40:03.224Z,1016.28
2023-04-23T04:45:03.030Z,1016.23
2023-04-23T04:50:03.250Z,1016.14
2023-04-23T04:55:03.087Z,1016.15
2023-04-23T05:00:03.237Z,1016.18
2023-04-23T05:05:03.036Z,1016.28
2023-04-23T05:10:03.194Z,1016.27
2023-04-23T05:15:03.077Z,1016.22
2023-04-23T05:20:03.149Z,1016.22
2023-04-23T05:25:03.112Z,1016.23
2023-04-23T05:30:03.188Z,1016.22
2023-04-23T05:35:03.226Z,1016.18
2023-04-23T05:40:03.197Z,1016.21
2023-04-23T05:45:03.040Z,1016.25
2023-04-23T05:50:03.268Z,1016.3
2023-04-23T05:55:03.069Z,1016.32
2023-04-23T06:00:04.413Z,1016.31
2023-04-23T06:05:03.300Z,1016.33
2023-04-23T06:10:03.312Z,1016.38
2023-04-23T06:15:03.006Z,1016.41
2023-04-23T06:20:03.089Z,1016.43
2023-04-23T06:25:03.054Z,1016.46
2023-04-23T06:30:03.290Z,1016.41
2023-04-23T06:35:03.068Z,1016.43
2023-04-23T06:40:03.178Z,1016.37
2023-04-23T06:45:04.224Z,1016.35
2023-04-23T06:50:03.428Z,1016.31
2023-04-23T06:55:03.040Z,1016.36
2023-04-23T07:00:03.144Z,1016.43
2023-04-23T07:05:03.131Z,1016.39
2023-04-23T07:10:03.281Z,1016.37
2023-04-23T07:15:03.019Z,1016.37
2023-04-23T07:20:03.215Z,1016.4
2023-04-23T07:25:03.064Z,1016.56
2023-04-23T07:30:03.124Z,1016.55
2023-04-23T07:35:03.130Z,1016.55
2023-04-23T07:40:03.198Z,1016.54
2023-04-23T07:45:03.101Z,1016.6
2023-04-23T07:50:03.173Z,1016.67
2023-04-23T07:55:03.037Z,1016.69
2023-04-23T08:00:03.269Z,1016.68
2023-04-23T08:05:03.198Z,1016.74
2023-04-23T08:10:03.255Z,1016.81
2023-04-23T08:15:03.043Z,1016.83
2023-04-23T08:20:03.190Z,1016.83
2023-04-23T08:25:02.999Z,1016.86
2023-04-23T08:30:03.147Z,1016.89
2023-04-23T08:35:03.093Z,1016.9
2023-04-23T08:40:03.181Z,1016.9
2023-04-23T08:45:03.095Z,1016.93
2023-04-23T08:50:03.167Z,1017.0
2023-04-23T08:55:03.116Z,1017.11
2023-04-23T09:00:03.218Z,1017.2
2023-04-23T09:05:03.087Z,1017.27
2023-04-23T09:10:03.229Z,1017.29
2023-04-23T09:15:02.990Z,1017.38
2023-04-23T09:20:03.184Z,1017.41
2023-04-23T09:25:03.325Z,1017.51
2023-04-23T09:30:03.111Z,1017.62
2023-04-23T09:35:03.052Z,1017.62
2023-04-23T09:40:03.245Z,1017.61
2023-04-23T09:45:03.015Z,1017.67
2023-04-23T09:50:03.304Z,1017.72
2023-04-23T09:55:03.052Z,1017.83
2023-04-23T10:00:11.276Z,1017.93
2023-04-23T10:05:14.500Z,1017.97
2023-04-23T10:10:03.269Z,1018.03
2023-04-23T10:15:03.081Z,1018.05
2023-04-23T10:20:03.285Z,1018.13
2023-04-23T10:25:03.164Z,1018.13
2023-04-23T10:30:04.854Z,1018.15
2023-04-23T10:35:03.012Z,1018.16
2023-04-23T10:40:03.271Z,1018.14
2023-04-23T10:45:10.285Z,1018.16
2023-04-23T10:50:03.837Z,1018.19
2023-04-23T10:55:03.279Z,1018.25
2023-04-23T11:00:03.217Z,1018.27
2023-04-23T11:05:03.210Z,1018.3
2023-04-23T11:10:03.134Z,1018.34
2023-04-23T11:15:03.155Z,1018.35
2023-04-23T11:20:03.258Z,1018.48
2023-04-23T11:25:03.024Z,1018.5
2023-04-23T11:30:03.205Z,1018.56
2023-04-23T11:35:03.023Z,1018.63
2023-04-23T11:40:03.324Z,1018.66
2023-04-23T11:45:03.139Z,1018.69
2023-04-23T11:50:08.188Z,1018.7
2023-04-23T11:55:03.062Z,1018.68
2023-04-23T12:00:03.341Z,1018.74
2023-04-23T12:05:03.109Z,1018.76
2023-04-23T12:10:03.187Z,1018.78
2023-04-23T12:15:03.044Z,1018.78
2023-04-23T12:20:03.256Z,1018.84
2023-04-23T12:25:03.078Z,1018.92
2023-04-23T12:30:05.698Z,1018.95
2023-04-23T12:35:03.092Z,1018.96
2023-04-23T12:40:03.239Z,1019.0
2023-04-23T12:45:03.166Z,1018.99
2023-04-23T12:50:04.198Z,1019.05
2023-04-23T12:55:03.125Z,1019.05
2023-04-23T13:00:03.170Z,1019.04
2023-04-23T13:05:03.077Z,1019.11
2023-04-23T13:10:03.215Z,1019.19
2023-04-23T13:15:03.092Z,1019.2
2023-04-23T13:20:03.213Z,1019.19
2023-04-23T13:25:03.073Z,1019.2
2023-04-23T13:30:03.319Z,1019.19
2023-04-23T13:35:03.298Z,1019.17
2023-04-23T13:40:03.236Z,1019.12
2023-04-23T13:45:03.191Z,1019.08
2023-04-23T13:50:03.255Z,1019.09
2023-04-23T13:55:03.105Z,1019.09
2023-04-23T14:00:03.282Z,1019.06
2023-04-23T14:05:03.100Z,1019.01
2023-04-23T14:10:03.312Z,1018.99
2023-04-23T14:15:03.874Z,1018.98
2023-04-23T14:20:03.423Z,1018.87
2023-04-23T14:25:03.055Z,1018.79
2023-04-23T14:30:03.170Z,1018.77
2023-04-23T14:35:03.122Z,1018.74
2023-04-23T14:40:03.251Z,1018.7
2023-04-23T14:45:03.146Z,1018.67
2023-04-23T14:50:03.259Z,1018.62
2023-04-23T14:55:03.058Z,1018.53
2023-04-23T15:00:03.344Z,1018.46
2023-04-23T15:05:03.127Z,1018.42
2023-04-23T15:10:03.337Z,1018.38
2023-04-23T15:15:03.104Z,1018.3
2023-04-23T15:20:04.030Z,1018.18
2023-04-23T15:25:04.087Z,1018.12
2023-04-23T15:30:03.165Z,1018.04
2023-04-23T15:35:03.079Z,1017.95
2023-04-23T15:40:03.400Z,1017.82
2023-04-23T15:45:03.131Z,1017.74
2023-04-23T15:50:03.299Z,1017.69
2023-04-23T15:55:03.063Z,1017.64
2023-04-23T16:00:03.362Z,1017.54
2023-04-23T16:05:03.125Z,1017.58
2023-04-23T16:10:04.292Z,1017.49
2023-04-23T16:15:03.155Z,1017.4
2023-04-23T16:20:04.338Z,1017.27
2023-04-23T16:25:03.153Z,1017.22
2023-04-23T16:30:03.423Z,1017.16
2023-04-23T16:35:04.814Z,1017.05
2023-04-23T16:40:03.223Z,1016.99
2023-04-23T16:45:03.147Z,1016.86
2023-04-23T16:50:03.336Z,1016.8
2023-04-23T16:55:03.194Z,1016.68
2023-04-23T17:00:03.230Z,1016.56
2023-04-23T17:05:03.077Z,1016.48
2023-04-23T17:10:03.273Z,1016.43
2023-04-23T17:15:03.162Z,1016.44
2023-04-23T17:20:05.100Z,1016.34
2023-04-23T17:25:03.138Z,1016.29
2023-04-23T17:30:03.386Z,1016.19
2023-04-23T17:35:09.850Z,1016.16
2023-04-23T17:40:03.283Z,1016.03
2023-04-23T17:45:03.200Z,1015.99
2023-04-23T17:50:03.434Z,1015.95
2023-04-23T17:55:03.127Z,1015.93
2023-04-23T18:00:04.222Z,1015.88
2023-04-23T18:05:03.265Z,1015.8
2023-04-23T18:10:03.368Z,1015.77
2023-04-23T18:15:03.109Z,1015.72
2023-04-23T18:20:04.972Z,1015.68
2023-04-23T18:25:03.045Z,1015.68
2023-04-23T18:30:03.248Z,1015.62
2023-04-23T18:35:03.009Z,1015.58
2023-04-23T18:40:03.177Z,1015.56
2023-04-23T18:45:03.097Z,1015.5
2023-04-23T18:50:03.292Z,1015.47
2023-04-23T18:55:03.182Z,1015.49
2023-04-23T19:00:03.281Z,1015.47
2023-04-23T19:05:03.192Z,1015.34
2023-04-23T19:10:03.190Z,1015.36
2023-04-23T19:15:03.102Z,1015.39
2023-04-23T19:20:03.369Z,1015.39
2023-04-23T19:25:03.313Z,1015.48
2023-04-23T19:30:03.253Z,1015.54
2023-04-23T19:35:03.872Z,1015.6
2023-04-23T19:40:04.343Z,1015.6
2023-04-23T19:45:03.151Z,1015.57
2023-04-23T19:50:03.235Z,1015.47
2023-04-23T19:55:04.272Z,1015.47
2023-04-23T20:00:03.453Z,1015.53
2023-04-23T20:05:03.289Z,1015.54
2023-04-23T20:10:03.185Z,1015.51
2023-04-23T20:15:03.846Z,1015.48
2023-04-23T20:20:03.974Z,1015.48
2023-04-23T20:25:03.137Z,1015.56
2023-04-23T20:30:03.244Z,1015.6
2023-04-23T20:35:03.053Z,1015.6
2023-04-23T20:40:03.305Z,1015.62
2023-04-23T20:45:03.047Z,1015.66
2023-04-23T20:50:03.215Z,1015.68
2023-04-23T20:55:03.139Z,1015.72
2023-04-23T21:00:03.345Z,1015.73
2023-04-23T21:05:03.188Z,1015.72
2023-04-23T21:10:03.228Z,1015.79
2023-04-23T21:15:03.018Z,1015.82
2023-04-23T21:20:03.331Z,1015.86
2023-04-23T21:25:03.024Z,1015.95
2023-04-23T21:30:03.199Z,1016.02
2023-04-23T21:35:03.070Z,1016.04
2023-04-23T21:40:03.365Z,1016.04
2023-04-23T21:45:03.111Z,1016.03
2023-04-23T21:50:03.210Z,1015.97
2023-04-23T21:55:03.130Z,1015.96
2023-04-23T22:00:03.301Z,1016.01
2023-04-23T22:05:03.041Z,1016.03
2023-04-23T22:10:03.192Z,1016.07
2023-04-23T22:15:03.041Z,1016.09
2023-04-23T22:20:03.340Z,1016.14
2023-04-23T22:25:03.061Z,1016.2
2023-04-23T22:30:03.408Z,1016.26
2023-04-23T22:35:03.176Z,1016.26
2023-04-23T22:40:03.159Z,1016.22
2023-04-23T22:45:03.115Z,1016.22
2023-04-23T22:50:03.239Z,1016.24
2023-04-23T22:55:03.048Z,1016.32
2023-04-23T23:00:03.379Z,1016.37
2023-04-23T23:05:03.006Z,1016.46
2023-04-23T23:10:03.185Z,1016.57
2023-04-23T23:15:03.137Z,1016.54
2023-04-23T23:20:03.200Z,1016.59
2023-04-23T23:25:03.034Z,1016.62
2023-04-23T23:30:03.221Z,1016.67
2023-04-23T23:35:03.985Z,1016.66
2023-04-23T23:40:03.528Z,1016.67
2023-04-23T23:45:04.251Z,1016.67
2023-04-23T23:50:03.249Z,1016.69
2023-04-23T23:55:03.075Z,1016.69
